createdAt,value
2022-12-09T00:00:07.566Z,93.20
2022-12-09T00:02:34.706Z,93.50
2022-12-09T00:05:02.184Z,92.80
2022-12-09T00:07:29.207Z,92.50
2022-12-09T00:09:55.932Z,91.90
2022-12-09T00:12:22.743Z,91.60
2022-12-09T00:14:49.466Z,91.40
2022-12-09T00:17:16.384Z,91.40
2022-12-09T00:19:43.405Z,91.30
2022-12-09T00:22:10.254Z,91.40
2022-12-09T00:24:37.329Z,91.60
2022-12-09T00:27:04.296Z,91.80
2022-12-09T00:29:31.202Z,92.20
2022-12-09T00:31:58.107Z,92.40
2022-12-09T00:34:25.244Z,92.70
2022-12-09T00:36:52.109Z,92.80
2022-12-09T00:39:18.857Z,92.90
2022-12-09T00:41:46.107Z,93.10
2022-12-09T00:44:13.246Z,93.20
2022-12-09T00:46:40.176Z,93.10
2022-12-09T00:49:07.508Z,93.60
2022-12-09T00:51:34.534Z,93.00
2022-12-09T00:54:01.521Z,92.30
2022-12-09T00:56:29.973Z,92.00
2022-12-09T00:58:57.981Z,91.90
2022-12-09T01:01:25.185Z,91.70
2022-12-09T01:03:52.112Z,91.40
2022-12-09T01:06:20.356Z,91.30
2022-12-09T01:08:47.316Z,91.40
2022-12-09T01:11:24.523Z,91.50
2022-12-09T01:13:51.823Z,91.90
2022-12-09T01:16:21.064Z,92.30
2022-12-09T01:18:48.117Z,92.60
2022-12-09T01:21:14.872Z,92.60
2022-12-09T01:23:41.851Z,92.80
2022-12-09T01:26:09.167Z,93.00
2022-12-09T01:28:36.768Z,93.10
2022-12-09T01:31:07.330Z,93.10
2022-12-09T01:33:34.203Z,93.50
2022-12-09T01:36:01.084Z,92.60
2022-12-09T01:38:27.857Z,92.30
2022-12-09T01:40:55.228Z,92.00
2022-12-09T01:43:22.207Z,91.70
2022-12-09T01:45:49.711Z,91.60
2022-12-09T01:48:20.514Z,91.50
2022-12-09T01:51:01.878Z,91.50
2022-12-09T01:53:34.176Z,91.50
2022-12-09T01:56:03.283Z,91.40
2022-12-09T01:58:30.356Z,91.60
2022-12-09T02:00:57.328Z,91.70
2022-12-09T02:03:24.396Z,92.00
2022-12-09T02:05:52.234Z,92.40
2022-12-09T02:08:19.757Z,92.60
2022-12-09T02:10:46.968Z,92.80
2022-12-09T02:13:26.972Z,92.90
2022-12-09T02:15:55.846Z,93.00
2022-12-09T02:18:41.543Z,93.20
2022-12-09T02:21:08.805Z,93.30
2022-12-09T02:23:44.838Z,93.10
2022-12-09T02:26:30.362Z,92.60
2022-12-09T02:29:16.071Z,92.10
2022-12-09T02:31:48.777Z,91.80
2022-12-09T02:34:15.941Z,91.60
2022-12-09T02:37:03.108Z,91.60
2022-12-09T02:39:34.470Z,91.60
2022-12-09T02:42:03.896Z,91.60
2022-12-09T02:44:31.326Z,91.70
2022-12-09T02:46:59.001Z,92.10
2022-12-09T02:49:27.445Z,92.40
2022-12-09T02:51:54.456Z,92.80
2022-12-09T02:54:22.362Z,92.80
2022-12-09T02:56:54.142Z,93.00
2022-12-09T02:59:21.260Z,93.00
2022-12-09T03:02:14.368Z,93.20
2022-12-09T03:04:43.454Z,93.10
2022-12-09T03:07:38.922Z,93.20
2022-12-09T03:10:26.370Z,92.70
2022-12-09T03:13:00.429Z,92.00
2022-12-09T03:15:29.723Z,91.70
2022-12-09T03:17:58.502Z,91.60
2022-12-09T03:20:28.225Z,91.40
2022-12-09T03:22:59.010Z,91.30
2022-12-09T03:25:34.538Z,91.40
2022-12-09T03:28:05.591Z,91.50
2022-12-09T03:30:34.406Z,91.70
2022-12-09T03:33:02.178Z,92.10
2022-12-09T03:35:34.337Z,92.40
2022-12-09T03:38:03.893Z,92.60
2022-12-09T03:40:31.370Z,92.90
2022-12-09T03:43:01.410Z,92.90
2022-12-09T03:45:28.829Z,93.00
2022-12-09T03:47:56.279Z,93.30
2022-12-09T03:50:25.174Z,93.10
2022-12-09T03:52:56.684Z,93.20
2022-12-09T03:55:27.029Z,92.60
2022-12-09T03:57:56.226Z,92.10
2022-12-09T04:00:23.206Z,91.70
2022-12-09T04:02:50.728Z,91.40
2022-12-09T04:05:17.749Z,91.30
2022-12-09T04:07:44.947Z,91.10
2022-12-09T04:10:12.387Z,91.10
2022-12-09T04:12:40.390Z,91.10
2022-12-09T04:15:07.462Z,91.30
2022-12-09T04:17:34.517Z,91.50
2022-12-09T04:20:01.595Z,92.10
2022-12-09T04:22:30.118Z,92.20
2022-12-09T04:24:57.315Z,92.50
2022-12-09T04:27:24.515Z,92.60
2022-12-09T04:29:51.439Z,92.80
2022-12-09T04:32:18.526Z,92.80
2022-12-09T04:34:45.435Z,92.90
2022-12-09T04:37:13.249Z,93.00
2022-12-09T04:39:41.891Z,93.00
2022-12-09T04:42:09.369Z,92.40
2022-12-09T04:44:36.440Z,91.90
2022-12-09T04:47:04.725Z,91.80
2022-12-09T04:49:31.677Z,91.50
2022-12-09T04:51:58.848Z,91.40
2022-12-09T04:54:26.068Z,91.40
2022-12-09T04:56:52.885Z,91.40
2022-12-09T04:59:19.740Z,91.30
2022-12-09T05:01:47.071Z,91.40
2022-12-09T05:04:14.216Z,91.50
2022-12-09T05:06:41.712Z,91.80
2022-12-09T05:09:13.269Z,92.30
2022-12-09T05:11:40.539Z,92.50
2022-12-09T05:14:07.872Z,92.80
2022-12-09T05:16:35.079Z,92.70
2022-12-09T05:19:02.360Z,93.00
2022-12-09T05:21:30.075Z,92.80
2022-12-09T05:23:57.033Z,93.20
2022-12-09T05:26:24.448Z,92.60
2022-12-09T05:28:51.629Z,92.00
2022-12-09T05:31:20.237Z,91.60
2022-12-09T05:33:48.683Z,91.40
2022-12-09T05:36:17.723Z,91.20
2022-12-09T05:38:45.106Z,91.30
2022-12-09T05:41:12.704Z,91.30
2022-12-09T05:43:40.187Z,91.40
2022-12-09T05:46:07.890Z,91.40
2022-12-09T05:48:38.342Z,91.60
2022-12-09T05:51:18.711Z,91.80
2022-12-09T05:53:45.656Z,92.20
2022-12-09T05:56:15.433Z,92.40
2022-12-09T05:58:42.654Z,92.60
2022-12-09T06:01:10.119Z,92.70
2022-12-09T06:03:37.798Z,92.90
2022-12-09T06:06:06.179Z,93.20
2022-12-09T06:08:33.306Z,93.10
2022-12-09T06:11:00.556Z,92.60
2022-12-09T06:13:27.543Z,92.10
2022-12-09T06:15:54.736Z,91.70
2022-12-09T06:18:22.209Z,91.50
2022-12-09T06:20:49.111Z,91.40
2022-12-09T06:23:16.038Z,91.40
2022-12-09T06:25:43.608Z,91.30
2022-12-09T06:28:10.577Z,91.40
2022-12-09T06:30:37.759Z,91.60
2022-12-09T06:33:17.478Z,91.70
2022-12-09T06:35:52.133Z,92.00
2022-12-09T06:38:19.079Z,92.40
2022-12-09T06:40:45.947Z,92.50
2022-12-09T06:43:12.823Z,92.60
2022-12-09T06:45:40.014Z,92.90
2022-12-09T06:48:08.665Z,93.00
2022-12-09T06:50:37.038Z,93.10
2022-12-09T06:53:04.353Z,93.30
2022-12-09T06:55:31.180Z,93.10
2022-12-09T06:57:58.649Z,92.40
2022-12-09T07:00:26.209Z,91.80
2022-12-09T07:02:53.758Z,91.70
2022-12-09T07:05:21.551Z,91.40
2022-12-09T07:07:52.933Z,91.30
2022-12-09T07:10:20.151Z,91.40
2022-12-09T07:12:47.638Z,91.30
2022-12-09T07:15:15.303Z,91.20
2022-12-09T07:17:42.607Z,91.10
2022-12-09T07:20:10.183Z,91.10
2022-12-09T07:22:37.286Z,91.10
2022-12-09T07:25:04.907Z,91.20
2022-12-09T07:27:32.719Z,91.40
2022-12-09T07:29:59.737Z,91.80
2022-12-09T07:32:27.287Z,92.10
2022-12-09T07:34:54.233Z,92.40
2022-12-09T07:37:21.326Z,92.60
2022-12-09T07:39:48.483Z,92.70
2022-12-09T07:42:15.662Z,92.10
2022-12-09T07:44:42.547Z,91.50
2022-12-09T07:47:09.361Z,91.40
2022-12-09T07:49:36.964Z,91.20
2022-12-09T07:52:04.487Z,91.10
2022-12-09T07:54:31.421Z,90.90
2022-12-09T07:56:58.485Z,90.90
2022-12-09T07:59:25.476Z,90.70
2022-12-09T08:01:52.291Z,91.00
2022-12-09T08:04:19.434Z,91.20
2022-12-09T08:06:47.217Z,91.20
2022-12-09T08:09:14.764Z,91.50
2022-12-09T08:11:41.833Z,91.90
2022-12-09T08:14:12.564Z,92.00
2022-12-09T08:16:40.867Z,92.50
2022-12-09T08:19:09.140Z,92.00
2022-12-09T08:21:36.932Z,91.50
2022-12-09T08:24:06.079Z,90.90
2022-12-09T08:26:33.966Z,90.60
2022-12-09T08:29:01.829Z,90.50
2022-12-09T08:31:29.913Z,90.40
2022-12-09T08:33:57.890Z,90.30
2022-12-09T08:36:26.396Z,90.00
2022-12-09T08:38:53.991Z,90.10
2022-12-09T08:41:38.959Z,90.20
2022-12-09T08:44:12.357Z,90.30
2022-12-09T08:46:41.011Z,90.70
2022-12-09T08:49:09.058Z,88.90
2022-12-09T08:51:36.646Z,87.80
2022-12-09T08:54:04.410Z,87.30
2022-12-09T08:56:32.016Z,87.30
2022-12-09T08:58:58.965Z,87.30
2022-12-09T09:01:32.283Z,87.40
2022-12-09T09:04:03.981Z,87.70
2022-12-09T09:06:31.237Z,87.80
2022-12-09T09:08:58.434Z,88.00
2022-12-09T09:11:26.055Z,87.90
2022-12-09T09:13:53.177Z,88.30
2022-12-09T09:16:21.858Z,88.90
2022-12-09T09:18:49.152Z,89.50
2022-12-09T09:21:16.863Z,90.00
2022-12-09T09:23:44.629Z,90.50
2022-12-09T09:26:12.569Z,90.90
2022-12-09T09:28:40.120Z,91.00
2022-12-09T09:31:08.445Z,91.40
2022-12-09T09:33:35.703Z,91.60
2022-12-09T09:36:09.687Z,91.70
2022-12-09T09:38:37.610Z,91.70
2022-12-09T09:41:15.981Z,90.70
2022-12-09T09:43:43.105Z,91.30
2022-12-09T09:46:12.572Z,90.30
2022-12-09T09:48:39.990Z,92.00
2022-12-09T09:51:11.781Z,92.20
2022-12-09T09:53:39.081Z,91.90
2022-12-09T09:56:24.868Z,92.00
2022-12-09T09:58:56.509Z,91.70
2022-12-09T10:01:25.897Z,91.70
2022-12-09T10:04:02.041Z,91.60
2022-12-09T10:06:30.129Z,91.10
2022-12-09T10:09:00.574Z,90.70
2022-12-09T10:11:40.731Z,90.20
2022-12-09T10:14:10.985Z,90.10
2022-12-09T10:16:56.430Z,89.90
2022-12-09T10:19:26.808Z,89.60
2022-12-09T10:21:54.807Z,89.70
2022-12-09T10:24:32.965Z,89.60
2022-12-09T10:27:11.082Z,89.40
2022-12-09T10:29:55.221Z,89.40
2022-12-09T10:32:24.632Z,89.40
2022-12-09T10:34:52.275Z,89.60
2022-12-09T10:37:25.071Z,89.50
2022-12-09T10:40:16.073Z,89.10
2022-12-09T10:43:06.398Z,89.30
2022-12-09T10:46:07.904Z,89.60
2022-12-09T10:48:33.104Z,89.70
2022-12-09T10:51:05.258Z,89.60
2022-12-09T10:53:33.876Z,89.50
2022-12-09T10:56:02.541Z,90.00
2022-12-09T10:58:30.500Z,89.50
2022-12-09T11:01:11.117Z,89.50
2022-12-09T11:03:47.361Z,89.60
2022-12-09T11:06:23.615Z,90.00
2022-12-09T11:08:52.739Z,90.00
2022-12-09T11:11:19.860Z,89.80
2022-12-09T11:13:48.181Z,89.80
2022-12-09T11:16:15.182Z,89.70
2022-12-09T11:18:44.347Z,88.30
2022-12-09T11:21:30.763Z,89.60
2022-12-09T11:24:03.209Z,88.60
2022-12-09T11:26:33.125Z,88.40
2022-12-09T11:29:14.168Z,88.50
2022-12-09T11:31:42.018Z,88.40
2022-12-09T11:34:37.758Z,88.50
2022-12-09T11:37:04.822Z,88.40
2022-12-09T11:39:35.189Z,88.70
2022-12-09T11:42:18.568Z,88.60
2022-12-09T11:44:54.474Z,88.80
2022-12-09T11:47:23.252Z,88.80
2022-12-09T11:50:13.375Z,89.00
2022-12-09T11:52:40.365Z,88.70
2022-12-09T11:55:21.879Z,88.80
2022-12-09T11:57:52.437Z,88.80
2022-12-09T12:00:21.359Z,89.10
2022-12-09T12:03:06.603Z,88.90
2022-12-09T12:05:37.153Z,88.80
2022-12-09T12:08:06.861Z,89.00
2022-12-09T12:10:45.956Z,89.30
2022-12-09T12:13:20.300Z,89.60
2022-12-09T12:15:49.316Z,89.40
2022-12-09T12:18:18.622Z,89.80
2022-12-09T12:20:48.544Z,89.80
2022-12-09T12:23:39.998Z,90.10
2022-12-09T12:26:14.635Z,90.10
2022-12-09T12:29:06.881Z,89.90
2022-12-09T12:31:34.079Z,89.90
2022-12-09T12:37:05.310Z,89.80
2022-12-09T12:39:50.439Z,90.00
2022-12-09T12:43:11.531Z,89.80
2022-12-09T12:46:15.613Z,89.90
2022-12-09T12:48:42.597Z,89.90
2022-12-09T12:51:32.350Z,90.00
2022-12-09T12:54:08.152Z,89.90
2022-12-09T12:56:40.387Z,90.00
2022-12-09T12:59:13.242Z,90.00
2022-12-09T13:01:53.813Z,89.70
2022-12-09T13:04:37.458Z,89.90
2022-12-09T13:07:15.077Z,90.00
2022-12-09T13:09:51.352Z,90.00
2022-12-09T13:12:41.274Z,90.10
2022-12-09T13:15:12.602Z,90.20
2022-12-09T13:17:39.665Z,90.20
2022-12-09T13:20:07.371Z,90.40
2022-12-09T13:22:57.362Z,90.00
2022-12-09T13:25:30.941Z,89.90
2022-12-09T13:28:04.117Z,90.00
2022-12-09T13:30:35.165Z,90.00
2022-12-09T13:33:20.871Z,89.90
2022-12-09T13:36:06.902Z,89.90
2022-12-09T13:38:40.004Z,90.00
2022-12-09T13:41:25.700Z,90.00
2022-12-09T13:43:56.191Z,89.90
2022-12-09T13:46:24.110Z,90.00
2022-12-09T13:48:51.791Z,89.90
2022-12-09T13:51:20.654Z,89.90
2022-12-09T13:53:50.862Z,89.90
2022-12-09T13:56:24.069Z,90.10
2022-12-09T13:58:53.633Z,90.10
2022-12-09T14:01:39.144Z,89.80
2022-12-09T14:04:16.822Z,89.60
2022-12-09T14:06:46.521Z,89.70
2022-12-09T14:09:22.706Z,89.70
2022-12-09T14:11:50.833Z,89.70
2022-12-09T14:14:23.666Z,89.40
2022-12-09T14:16:58.291Z,89.50
2022-12-09T14:19:25.262Z,89.50
2022-12-09T14:22:18.162Z,89.30
2022-12-09T14:24:45.878Z,89.60
2022-12-09T14:27:13.759Z,89.80
2022-12-09T14:29:44.457Z,90.00
2022-12-09T14:32:40.762Z,90.20
2022-12-09T14:35:10.077Z,90.50
2022-12-09T14:37:41.793Z,91.00
2022-12-09T14:40:14.414Z,91.40
2022-12-09T14:42:41.754Z,91.70
2022-12-09T14:45:27.030Z,91.60
2022-12-09T14:47:53.883Z,91.30
2022-12-09T14:50:24.755Z,90.70
2022-12-09T14:52:55.518Z,90.50
2022-12-09T14:55:23.726Z,90.30
2022-12-09T14:57:51.869Z,90.20
2022-12-09T15:00:26.947Z,90.20
2022-12-09T15:03:32.147Z,90.00
2022-12-09T15:06:00.600Z,90.00
2022-12-09T15:08:31.811Z,90.00
2022-12-09T15:10:59.756Z,90.10
2022-12-09T15:13:26.711Z,90.10
2022-12-09T15:15:54.046Z,90.20
2022-12-09T15:18:22.915Z,90.20
2022-12-09T15:20:54.428Z,90.30
2022-12-09T15:23:32.068Z,90.20
2022-12-09T15:26:01.208Z,90.10
2022-12-09T15:28:29.863Z,90.20
2022-12-09T15:31:01.329Z,90.30
2022-12-09T15:33:29.565Z,90.20
2022-12-09T15:35:58.862Z,90.20
2022-12-09T15:38:27.000Z,90.30
2022-12-09T15:41:13.639Z,90.40
2022-12-09T15:43:41.515Z,90.20
2022-12-09T15:46:08.615Z,90.10
2022-12-09T15:48:38.503Z,90.20
2022-12-09T15:51:08.043Z,90.20
2022-12-09T15:53:39.715Z,90.10
2022-12-09T15:56:09.357Z,90.10
2022-12-09T15:58:38.815Z,90.20
2022-12-09T16:01:05.722Z,90.20
2022-12-09T16:03:33.561Z,90.20
2022-12-09T16:06:03.454Z,90.00
2022-12-09T16:08:35.326Z,90.00
2022-12-09T16:11:02.383Z,90.00
2022-12-09T16:13:29.865Z,90.00
2022-12-09T16:15:58.120Z,90.00
2022-12-09T16:18:24.966Z,90.00
2022-12-09T16:21:10.648Z,90.20
2022-12-09T16:23:37.515Z,90.20
2022-12-09T16:26:07.437Z,90.20
2022-12-09T16:28:35.030Z,90.20
2022-12-09T16:31:03.304Z,90.20
2022-12-09T16:33:34.305Z,90.20
2022-12-09T16:36:02.828Z,90.20
2022-12-09T16:38:30.444Z,90.10
2022-12-09T16:40:58.756Z,90.20
2022-12-09T16:43:26.398Z,90.20
2022-12-09T16:45:57.441Z,90.30
2022-12-09T16:48:25.125Z,90.30
2022-12-09T16:50:52.114Z,90.30
2022-12-09T16:53:28.566Z,90.30
2022-12-09T16:55:56.562Z,90.40
2022-12-09T16:58:23.406Z,90.40
2022-12-09T17:00:50.593Z,90.40
2022-12-09T17:03:32.449Z,90.40
2022-12-09T17:05:59.370Z,90.40
2022-12-09T17:08:26.256Z,90.40
2022-12-09T17:10:53.270Z,90.30
2022-12-09T17:13:20.289Z,90.30
2022-12-09T17:15:47.115Z,90.40
2022-12-09T17:18:13.919Z,90.60
2022-12-09T17:20:40.849Z,90.70
2022-12-09T17:23:07.732Z,91.30
2022-12-09T17:25:34.743Z,91.80
2022-12-09T17:28:05.634Z,92.00
2022-12-09T17:30:36.691Z,92.10
2022-12-09T17:33:03.751Z,91.70
2022-12-09T17:35:34.182Z,91.30
2022-12-09T17:38:02.772Z,90.90
2022-12-09T17:40:29.522Z,90.80
2022-12-09T17:42:56.377Z,90.80
2022-12-09T17:45:23.295Z,90.70
2022-12-09T17:47:50.157Z,90.50
2022-12-09T17:50:16.928Z,90.50
2022-12-09T17:52:43.759Z,90.40
2022-12-09T17:55:10.752Z,90.40
2022-12-09T17:57:37.527Z,90.50
2022-12-09T18:00:05.309Z,90.50
2022-12-09T18:02:32.282Z,90.60
2022-12-09T18:04:59.071Z,90.50
2022-12-09T18:07:25.905Z,90.60
2022-12-09T18:09:54.676Z,90.60
2022-12-09T18:12:21.901Z,90.50
2022-12-09T18:14:48.924Z,90.50
2022-12-09T18:17:15.818Z,90.50
2022-12-09T18:19:42.550Z,90.40
2022-12-09T18:22:09.365Z,90.40
2022-12-09T18:24:36.199Z,90.60
2022-12-09T18:27:02.959Z,90.50
2022-12-09T18:29:31.019Z,90.50
2022-12-09T18:31:58.192Z,90.30
2022-12-09T18:34:26.079Z,90.40
2022-12-09T18:36:53.330Z,90.40
2022-12-09T18:39:20.440Z,90.60
2022-12-09T18:41:47.379Z,90.80
2022-12-09T18:44:15.083Z,91.20
2022-12-09T18:46:46.727Z,91.60
2022-12-09T18:49:15.037Z,92.00
2022-12-09T18:51:43.073Z,92.20
2022-12-09T18:54:11.056Z,92.10
2022-12-09T18:56:38.065Z,91.60
2022-12-09T18:59:06.872Z,91.10
2022-12-09T19:01:35.785Z,90.60
2022-12-09T19:04:04.035Z,90.60
2022-12-09T19:06:32.230Z,90.50
2022-12-09T19:09:00.365Z,90.30
2022-12-09T19:11:28.452Z,90.30
2022-12-09T19:13:55.495Z,90.40
2022-12-09T19:16:23.115Z,90.40
2022-12-09T19:18:50.604Z,90.20
2022-12-09T19:21:18.751Z,90.20
2022-12-09T19:23:46.170Z,90.30
2022-12-09T19:26:13.969Z,90.30
2022-12-09T19:28:46.167Z,90.50
2022-12-09T19:31:15.163Z,90.80
2022-12-09T19:33:42.097Z,91.20
2022-12-09T19:36:09.410Z,91.70
2022-12-09T19:38:36.430Z,92.00
2022-12-09T19:41:03.241Z,92.30
2022-12-09T19:43:30.199Z,92.00
2022-12-09T19:46:02.137Z,91.40
2022-12-09T19:48:28.947Z,90.90
2022-12-09T19:50:56.107Z,90.80
2022-12-09T19:53:22.936Z,90.70
2022-12-09T19:55:49.717Z,90.50
2022-12-09T19:58:16.431Z,90.40
2022-12-09T20:00:43.219Z,90.60
2022-12-09T20:03:10.480Z,90.70
2022-12-09T20:05:37.301Z,90.70
2022-12-09T20:08:04.341Z,90.60
2022-12-09T20:10:31.287Z,90.50
2022-12-09T20:12:58.112Z,90.50
2022-12-09T20:15:25.196Z,90.60
2022-12-09T20:17:51.936Z,90.80
2022-12-09T20:20:18.935Z,90.90
2022-12-09T20:22:45.789Z,91.20
2022-12-09T20:25:12.605Z,91.70
2022-12-09T20:27:39.371Z,92.00
2022-12-09T20:30:07.189Z,92.20
2022-12-09T20:32:34.415Z,92.00
2022-12-09T20:35:06.766Z,91.60
2022-12-09T20:37:35.293Z,91.20
2022-12-09T20:40:02.271Z,90.90
2022-12-09T20:42:29.033Z,90.80
2022-12-09T20:44:55.845Z,90.50
2022-12-09T20:47:22.605Z,90.70
2022-12-09T20:49:49.353Z,91.00
2022-12-09T20:52:16.162Z,91.30
2022-12-09T20:54:42.988Z,91.60
2022-12-09T20:57:09.770Z,92.00
2022-12-09T20:59:36.625Z,92.30
2022-12-09T21:02:08.289Z,92.50
2022-12-09T21:04:37.681Z,92.70
2022-12-09T21:07:05.545Z,92.90
2022-12-09T21:09:32.602Z,93.00
2022-12-09T21:11:59.808Z,93.10
2022-12-09T21:14:31.106Z,93.20
2022-12-09T21:16:59.761Z,93.30
2022-12-09T21:19:30.084Z,93.30
2022-12-09T21:21:56.860Z,93.40
2022-12-09T21:24:24.826Z,93.50
2022-12-09T21:26:53.647Z,93.50
2022-12-09T21:29:20.416Z,93.50
2022-12-09T21:31:48.899Z,93.50
2022-12-09T21:34:16.325Z,93.60
2022-12-09T21:36:43.926Z,93.30
2022-12-09T21:39:12.346Z,92.80
2022-12-09T21:41:39.128Z,92.30
2022-12-09T21:44:06.326Z,92.10
2022-12-09T21:46:34.657Z,91.90
2022-12-09T21:49:04.321Z,91.70
2022-12-09T21:51:31.561Z,91.60
2022-12-09T21:53:58.507Z,91.60
2022-12-09T21:56:26.846Z,91.70
2022-12-09T21:58:55.740Z,92.10
2022-12-09T22:01:29.577Z,92.30
2022-12-09T22:03:56.908Z,92.70
2022-12-09T22:06:23.964Z,93.00
2022-12-09T22:08:50.787Z,93.10
2022-12-09T22:11:21.684Z,93.20
2022-12-09T22:13:48.662Z,93.30
2022-12-09T22:16:17.457Z,93.40
2022-12-09T22:18:44.613Z,93.50
2022-12-09T22:21:28.989Z,93.60
2022-12-09T22:23:59.939Z,93.60
2022-12-09T22:26:27.098Z,93.60
2022-12-09T22:28:54.368Z,93.70
2022-12-09T22:31:22.406Z,93.80
2022-12-09T22:33:50.328Z,93.80
2022-12-09T22:36:18.084Z,93.80
2022-12-09T22:38:45.029Z,93.70
2022-12-09T22:41:13.396Z,93.10
2022-12-09T22:43:40.838Z,92.50
2022-12-09T22:46:14.631Z,92.00
2022-12-09T22:48:41.579Z,91.90
2022-12-09T22:51:10.226Z,91.60
2022-12-09T22:53:37.405Z,91.60
2022-12-09T22:56:05.004Z,91.60
2022-12-09T22:58:31.761Z,91.70
2022-12-09T23:00:58.599Z,92.00
2022-12-09T23:03:25.458Z,92.30
2022-12-09T23:05:52.265Z,92.70
2022-12-09T23:08:19.049Z,92.90
2022-12-09T23:10:45.863Z,93.00
2022-12-09T23:13:12.643Z,93.30
2022-12-09T23:15:39.534Z,93.40
2022-12-09T23:18:06.298Z,93.40
2022-12-09T23:20:33.065Z,93.50
2022-12-09T23:22:59.950Z,93.30
2022-12-09T23:25:26.890Z,93.50
2022-12-09T23:27:53.668Z,92.90
2022-12-09T23:30:20.607Z,92.60
2022-12-09T23:32:47.546Z,92.30
2022-12-09T23:35:14.392Z,92.10
2022-12-09T23:37:41.401Z,92.00
2022-12-09T23:40:08.727Z,91.70
2022-12-09T23:42:35.713Z,91.80
2022-12-09T23:45:02.541Z,91.70
2022-12-09T23:47:29.325Z,91.80
2022-12-09T23:49:56.150Z,92.10
2022-12-09T23:52:22.991Z,92.30
2022-12-09T23:54:49.763Z,92.70
2022-12-09T23:57:16.553Z,93.00
2022-12-09T23:59:43.547Z,93.20
